sensor_id;sensor_type;location;lat;lon;timestamp;temperature;humidity
28632;DHT22;15818;45.534;5.292;2022-12-18T00:00:04;-2.30;99.90
28632;DHT22;15818;45.534;5.292;2022-12-18T00:02:30;-2.20;99.90
28632;DHT22;15818;45.534;5.292;2022-12-18T00:04:56;-2.30;99.90
28632;DHT22;15818;45.534;5.292;2022-12-18T00:07:21;-2.20;99.90
28632;DHT22;15818;45.534;5.292;2022-12-18T00:09:47;-2.20;99.90
28632;DHT22;15818;45.534;5.292;2022-12-18T00:12:12;-2.10;99.90
28632;DHT22;15818;45.534;5.292;2022-12-18T00:14:38;-1.90;99.90
28632;DHT22;15818;45.534;5.292;2022-12-18T00:17:03;-1.70;99.90
28632;DHT22;15818;45.534;5.292;2022-12-18T00:19:29;-1.50;99.90
28632;DHT22;15818;45.534;5.292;2022-12-18T00:21:55;-1.50;99.90
28632;DHT22;15818;45.534;5.292;2022-12-18T00:24:20;-1.50;99.90
28632;DHT22;15818;45.534;5.292;2022-12-18T00:26:46;-1.30;99.90
28632;DHT22;15818;45.534;5.292;2022-12-18T00:29:12;-1.30;99.90
28632;DHT22;15818;45.534;5.292;2022-12-18T00:31:39;-1.20;99.90
28632;DHT22;15818;45.534;5.292;2022-12-18T00:34:05;-1.20;99.90
28632;DHT22;15818;45.534;5.292;2022-12-18T00:36:31;-1.30;99.90
28632;DHT22;15818;45.534;5.292;2022-12-18T00:38:57;-1.50;99.90
28632;DHT22;15818;45.534;5.292;2022-12-18T00:41:24;-1.50;99.90
28632;DHT22;15818;45.534;5.292;2022-12-18T00:44:09;-1.50;99.90
28632;DHT22;15818;45.534;5.292;2022-12-18T00:46:34;-1.50;99.90
28632;DHT22;15818;45.534;5.292;2022-12-18T00:49:00;-1.50;99.90
28632;DHT22;15818;45.534;5.292;2022-12-18T00:51:26;-1.60;99.90
28632;DHT22;15818;45.534;5.292;2022-12-18T00:53:52;-1.60;99.90
28632;DHT22;15818;45.534;5.292;2022-12-18T00:56:21;-1.60;99.90
28632;DHT22;15818;45.534;5.292;2022-12-18T00:58:46;-1.60;99.90
28632;DHT22;15818;45.534;5.292;2022-12-18T01:01:12;-1.60;99.90
28632;DHT22;15818;45.534;5.292;2022-12-18T01:03:37;-1.60;99.90
28632;DHT22;15818;45.534;5.292;2022-12-18T01:06:06;-1.60;99.90
28632;DHT22;15818;45.534;5.292;2022-12-18T01:08:32;-1.60;99.90
28632;DHT22;15818;45.534;5.292;2022-12-18T01:10:58;-1.50;99.90
28632;DHT22;15818;45.534;5.292;2022-12-18T01:13:23;-1.40;99.90
28632;DHT22;15818;45.534;5.292;2022-12-18T01:15:49;-1.40;99.90
28632;DHT22;15818;45.534;5.292;2022-12-18T01:18:15;-1.30;99.90
28632;DHT22;15818;45.534;5.292;2022-12-18T01:20:40;-1.20;99.90
28632;DHT22;15818;45.534;5.292;2022-12-18T01:23:06;-1.30;99.90
28632;DHT22;15818;45.534;5.292;2022-12-18T01:25:32;-1.40;99.90
28632;DHT22;15818;45.534;5.292;2022-12-18T01:27:57;-1.40;99.90
28632;DHT22;15818;45.534;5.292;2022-12-18T01:30:23;-1.40;99.90
28632;DHT22;15818;45.534;5.292;2022-12-18T01:32:48;-1.50;99.90
28632;DHT22;15818;45.534;5.292;2022-12-18T01:35:14;-1.40;99.90
28632;DHT22;15818;45.534;5.292;2022-12-18T01:37:39;-1.40;99.90
28632;DHT22;15818;45.534;5.292;2022-12-18T01:40:05;-1.40;99.90
28632;DHT22;15818;45.534;5.292;2022-12-18T01:42:31;-1.30;99.90
28632;DHT22;15818;45.534;5.292;2022-12-18T01:50:07;-1.30;99.90
28632;DHT22;15818;45.534;5.292;2022-12-18T01:52:33;-1.40;99.90
28632;DHT22;15818;45.534;5.292;2022-12-18T01:55:00;-1.40;99.90
28632;DHT22;15818;45.534;5.292;2022-12-18T01:57:26;-1.40;99.90
28632;DHT22;15818;45.534;5.292;2022-12-18T01:59:52;-1.40;99.90
28632;DHT22;15818;45.534;5.292;2022-12-18T02:02:19;-1.40;99.90
28632;DHT22;15818;45.534;5.292;2022-12-18T02:04:45;-1.40;99.90
28632;DHT22;15818;45.534;5.292;2022-12-18T02:09:38;-1.40;99.90
28632;DHT22;15818;45.534;5.292;2022-12-18T02:24:53;-1.20;99.90
28632;DHT22;15818;45.534;5.292;2022-12-18T02:27:21;-1.10;99.90
28632;DHT22;15818;45.534;5.292;2022-12-18T02:29:50;-1.00;99.90
28632;DHT22;15818;45.534;5.292;2022-12-18T02:32:22;-0.90;99.90
28632;DHT22;15818;45.534;5.292;2022-12-18T02:34:49;-0.90;99.90
28632;DHT22;15818;45.534;5.292;2022-12-18T02:37:16;-0.90;99.90
28632;DHT22;15818;45.534;5.292;2022-12-18T02:39:43;-0.90;99.90
28632;DHT22;15818;45.534;5.292;2022-12-18T02:42:09;-0.90;99.90
28632;DHT22;15818;45.534;5.292;2022-12-18T02:44:46;-0.90;99.90
28632;DHT22;15818;45.534;5.292;2022-12-18T02:47:12;-0.80;99.90
28632;DHT22;15818;45.534;5.292;2022-12-18T02:49:49;-0.70;99.90
28632;DHT22;15818;45.534;5.292;2022-12-18T02:59:54;-0.60;99.90
28632;DHT22;15818;45.534;5.292;2022-12-18T03:04:54;-0.50;99.90
28632;DHT22;15818;45.534;5.292;2022-12-18T03:07:23;-0.60;99.90
28632;DHT22;15818;45.534;5.292;2022-12-18T03:09:51;-0.60;99.90
28632;DHT22;15818;45.534;5.292;2022-12-18T03:12:29;-0.50;99.90
28632;DHT22;15818;45.534;5.292;2022-12-18T03:15:01;-0.50;99.90
28632;DHT22;15818;45.534;5.292;2022-12-18T03:17:27;-0.50;99.90
28632;DHT22;15818;45.534;5.292;2022-12-18T03:19:56;-0.40;99.90
28632;DHT22;15818;45.534;5.292;2022-12-18T03:22:23;-0.40;99.90
28632;DHT22;15818;45.534;5.292;2022-12-18T03:24:49;-0.30;99.90
28632;DHT22;15818;45.534;5.292;2022-12-18T03:27:15;-0.40;99.90
28632;DHT22;15818;45.534;5.292;2022-12-18T03:29:44;-0.40;99.90
28632;DHT22;15818;45.534;5.292;2022-12-18T03:32:12;-0.40;99.90
28632;DHT22;15818;45.534;5.292;2022-12-18T03:34:40;-0.40;99.90
28632;DHT22;15818;45.534;5.292;2022-12-18T03:37:07;-0.40;99.90
28632;DHT22;15818;45.534;5.292;2022-12-18T03:39:33;-0.40;99.90
28632;DHT22;15818;45.534;5.292;2022-12-18T03:42:04;-0.60;99.90
28632;DHT22;15818;45.534;5.292;2022-12-18T03:47:16;-0.70;99.90
28632;DHT22;15818;45.534;5.292;2022-12-18T03:49:47;-0.70;99.90
28632;DHT22;15818;45.534;5.292;2022-12-18T03:52:18;-0.50;99.90
28632;DHT22;15818;45.534;5.292;2022-12-18T03:54:46;-0.50;99.90
28632;DHT22;15818;45.534;5.292;2022-12-18T03:57:21;-0.40;99.90
28632;DHT22;15818;45.534;5.292;2022-12-18T03:59:49;-0.40;99.90
28632;DHT22;15818;45.534;5.292;2022-12-18T04:02:16;-0.40;99.90
28632;DHT22;15818;45.534;5.292;2022-12-18T04:04:42;-0.40;99.90
28632;DHT22;15818;45.534;5.292;2022-12-18T04:07:08;-0.40;99.90
28632;DHT22;15818;45.534;5.292;2022-12-18T04:09:34;-0.40;99.90
28632;DHT22;15818;45.534;5.292;2022-12-18T04:12:00;-0.30;99.90
28632;DHT22;15818;45.534;5.292;2022-12-18T04:14:26;-0.30;99.90
28632;DHT22;15818;45.534;5.292;2022-12-18T04:16:51;-0.30;99.90
28632;DHT22;15818;45.534;5.292;2022-12-18T04:19:17;-0.20;99.90
28632;DHT22;15818;45.534;5.292;2022-12-18T04:21:42;-0.20;99.90
28632;DHT22;15818;45.534;5.292;2022-12-18T04:24:08;-0.20;99.90
28632;DHT22;15818;45.534;5.292;2022-12-18T04:26:34;-0.20;99.90
28632;DHT22;15818;45.534;5.292;2022-12-18T04:28:59;-0.10;99.90
28632;DHT22;15818;45.534;5.292;2022-12-18T04:31:25;0.00;99.90
28632;DHT22;15818;45.534;5.292;2022-12-18T04:33:51;0.00;99.90
28632;DHT22;15818;45.534;5.292;2022-12-18T04:36:16;0.00;99.90
28632;DHT22;15818;45.534;5.292;2022-12-18T04:38:42;0.00;99.90
28632;DHT22;15818;45.534;5.292;2022-12-18T04:41:07;0.00;99.90
28632;DHT22;15818;45.534;5.292;2022-12-18T04:43:33;0.00;99.90
28632;DHT22;15818;45.534;5.292;2022-12-18T04:46:05;0.10;99.90
28632;DHT22;15818;45.534;5.292;2022-12-18T04:48:31;0.10;99.90
28632;DHT22;15818;45.534;5.292;2022-12-18T04:50:57;0.20;99.90
28632;DHT22;15818;45.534;5.292;2022-12-18T04:53:23;0.20;99.90
28632;DHT22;15818;45.534;5.292;2022-12-18T04:55:48;0.20;99.90
28632;DHT22;15818;45.534;5.292;2022-12-18T04:58:14;0.20;99.90
28632;DHT22;15818;45.534;5.292;2022-12-18T05:00:40;0.20;99.90
28632;DHT22;15818;45.534;5.292;2022-12-18T05:03:05;0.20;99.90
28632;DHT22;15818;45.534;5.292;2022-12-18T05:05:31;0.30;99.90
28632;DHT22;15818;45.534;5.292;2022-12-18T05:07:56;0.30;99.90
28632;DHT22;15818;45.534;5.292;2022-12-18T05:10:22;0.30;99.90
28632;DHT22;15818;45.534;5.292;2022-12-18T05:12:47;0.30;99.90
28632;DHT22;15818;45.534;5.292;2022-12-18T05:15:31;0.30;99.90
28632;DHT22;15818;45.534;5.292;2022-12-18T05:17:58;0.30;99.90
28632;DHT22;15818;45.534;5.292;2022-12-18T05:20:24;0.30;99.90
28632;DHT22;15818;45.534;5.292;2022-12-18T05:22:50;0.30;99.90
28632;DHT22;15818;45.534;5.292;2022-12-18T05:25:15;0.30;99.90
28632;DHT22;15818;45.534;5.292;2022-12-18T05:27:41;0.30;99.90
28632;DHT22;15818;45.534;5.292;2022-12-18T05:30:07;0.30;99.90
28632;DHT22;15818;45.534;5.292;2022-12-18T05:32:33;0.30;99.90
28632;DHT22;15818;45.534;5.292;2022-12-18T05:34:59;0.30;99.90
28632;DHT22;15818;45.534;5.292;2022-12-18T05:37:24;0.40;99.90
28632;DHT22;15818;45.534;5.292;2022-12-18T05:39:50;0.40;99.90
28632;DHT22;15818;45.534;5.292;2022-12-18T05:42:15;0.40;99.90
28632;DHT22;15818;45.534;5.292;2022-12-18T05:44:41;0.30;99.90
28632;DHT22;15818;45.534;5.292;2022-12-18T05:47:07;0.30;99.90
28632;DHT22;15818;45.534;5.292;2022-12-18T05:49:32;0.30;99.90
28632;DHT22;15818;45.534;5.292;2022-12-18T05:51:58;0.30;99.90
28632;DHT22;15818;45.534;5.292;2022-12-18T05:54:23;0.30;99.90
28632;DHT22;15818;45.534;5.292;2022-12-18T05:56:49;0.30;99.90
28632;DHT22;15818;45.534;5.292;2022-12-18T05:59:15;0.40;99.90
28632;DHT22;15818;45.534;5.292;2022-12-18T06:01:40;0.30;99.90
28632;DHT22;15818;45.534;5.292;2022-12-18T06:04:06;0.30;99.90
28632;DHT22;15818;45.534;5.292;2022-12-18T06:06:31;0.30;99.90
28632;DHT22;15818;45.534;5.292;2022-12-18T06:08:57;0.30;99.90
28632;DHT22;15818;45.534;5.292;2022-12-18T06:11:24;0.30;99.90
28632;DHT22;15818;45.534;5.292;2022-12-18T06:13:50;0.40;99.90
28632;DHT22;15818;45.534;5.292;2022-12-18T06:16:16;0.50;99.90
28632;DHT22;15818;45.534;5.292;2022-12-18T06:18:42;0.60;99.90
28632;DHT22;15818;45.534;5.292;2022-12-18T06:21:07;0.60;99.90
28632;DHT22;15818;45.534;5.292;2022-12-18T06:23:33;0.60;99.90
28632;DHT22;15818;45.534;5.292;2022-12-18T06:26:03;0.70;99.90
28632;DHT22;15818;45.534;5.292;2022-12-18T06:28:29;0.70;99.90
28632;DHT22;15818;45.534;5.292;2022-12-18T06:30:54;0.70;99.90
28632;DHT22;15818;45.534;5.292;2022-12-18T06:33:20;0.70;99.90
28632;DHT22;15818;45.534;5.292;2022-12-18T06:35:45;0.70;99.90
28632;DHT22;15818;45.534;5.292;2022-12-18T06:38:11;0.70;99.90
28632;DHT22;15818;45.534;5.292;2022-12-18T06:40:37;0.70;99.90
28632;DHT22;15818;45.534;5.292;2022-12-18T06:43:04;0.60;99.90
28632;DHT22;15818;45.534;5.292;2022-12-18T06:45:30;0.60;99.90
28632;DHT22;15818;45.534;5.292;2022-12-18T06:47:55;0.70;99.90
28632;DHT22;15818;45.534;5.292;2022-12-18T06:50:21;0.70;99.90
28632;DHT22;15818;45.534;5.292;2022-12-18T06:52:46;0.70;99.90
28632;DHT22;15818;45.534;5.292;2022-12-18T06:55:12;0.70;99.90
28632;DHT22;15818;45.534;5.292;2022-12-18T06:57:38;0.70;99.90
28632;DHT22;15818;45.534;5.292;2022-12-18T07:00:04;0.70;99.90
28632;DHT22;15818;45.534;5.292;2022-12-18T07:02:30;0.70;99.90
28632;DHT22;15818;45.534;5.292;2022-12-18T07:04:56;0.80;99.90
28632;DHT22;15818;45.534;5.292;2022-12-18T07:07:21;0.70;99.90
28632;DHT22;15818;45.534;5.292;2022-12-18T07:09:48;0.80;99.90
28632;DHT22;15818;45.534;5.292;2022-12-18T07:12:14;0.80;99.90
28632;DHT22;15818;45.534;5.292;2022-12-18T07:14:40;0.80;99.90
28632;DHT22;15818;45.534;5.292;2022-12-18T07:17:05;0.70;99.90
28632;DHT22;15818;45.534;5.292;2022-12-18T07:19:31;0.80;99.90
28632;DHT22;15818;45.534;5.292;2022-12-18T07:21:56;0.70;99.90
28632;DHT22;15818;45.534;5.292;2022-12-18T07:24:22;0.80;99.90
28632;DHT22;15818;45.534;5.292;2022-12-18T07:26:47;0.90;99.90
28632;DHT22;15818;45.534;5.292;2022-12-18T07:29:13;1.00;99.90
28632;DHT22;15818;45.534;5.292;2022-12-18T07:31:38;1.10;99.90
28632;DHT22;15818;45.534;5.292;2022-12-18T07:34:04;1.10;99.90
28632;DHT22;15818;45.534;5.292;2022-12-18T07:36:30;1.10;99.90
28632;DHT22;15818;45.534;5.292;2022-12-18T07:38:55;1.10;99.90
28632;DHT22;15818;45.534;5.292;2022-12-18T07:41:21;1.00;99.90
28632;DHT22;15818;45.534;5.292;2022-12-18T07:43:47;1.00;99.90
28632;DHT22;15818;45.534;5.292;2022-12-18T07:46:13;1.20;99.90
28632;DHT22;15818;45.534;5.292;2022-12-18T07:48:41;1.20;99.90
28632;DHT22;15818;45.534;5.292;2022-12-18T07:51:07;1.10;99.90
28632;DHT22;15818;45.534;5.292;2022-12-18T07:53:33;1.10;99.90
28632;DHT22;15818;45.534;5.292;2022-12-18T07:56:00;1.40;99.90
28632;DHT22;15818;45.534;5.292;2022-12-18T07:58:25;1.30;99.90
28632;DHT22;15818;45.534;5.292;2022-12-18T08:00:51;1.50;99.90
28632;DHT22;15818;45.534;5.292;2022-12-18T08:03:17;1.80;99.90
28632;DHT22;15818;45.534;5.292;2022-12-18T08:05:43;2.30;99.90
28632;DHT22;15818;45.534;5.292;2022-12-18T08:08:09;2.80;99.90
28632;DHT22;15818;45.534;5.292;2022-12-18T08:10:34;3.80;99.90
28632;DHT22;15818;45.534;5.292;2022-12-18T08:13:00;5.50;99.90
28632;DHT22;15818;45.534;5.292;2022-12-18T08:15:25;6.70;99.90
28632;DHT22;15818;45.534;5.292;2022-12-18T08:17:51;7.80;99.90
28632;DHT22;15818;45.534;5.292;2022-12-18T08:20:17;8.20;99.90
28632;DHT22;15818;45.534;5.292;2022-12-18T08:22:44;8.00;99.90
28632;DHT22;15818;45.534;5.292;2022-12-18T08:25:09;8.10;99.90
28632;DHT22;15818;45.534;5.292;2022-12-18T08:27:35;8.50;99.90
28632;DHT22;15818;45.534;5.292;2022-12-18T08:30:02;9.00;99.90
28632;DHT22;15818;45.534;5.292;2022-12-18T08:32:28;8.80;99.90
28632;DHT22;15818;45.534;5.292;2022-12-18T08:34:53;9.50;99.90
28632;DHT22;15818;45.534;5.292;2022-12-18T08:37:19;10.40;99.90
28632;DHT22;15818;45.534;5.292;2022-12-18T08:39:44;10.40;99.90
28632;DHT22;15818;45.534;5.292;2022-12-18T08:42:10;10.40;99.90
28632;DHT22;15818;45.534;5.292;2022-12-18T08:44:55;10.90;99.90
28632;DHT22;15818;45.534;5.292;2022-12-18T08:47:20;11.20;99.90
28632;DHT22;15818;45.534;5.292;2022-12-18T08:49:46;11.40;99.90
28632;DHT22;15818;45.534;5.292;2022-12-18T08:52:11;11.30;99.90
28632;DHT22;15818;45.534;5.292;2022-12-18T08:54:37;11.30;99.90
28632;DHT22;15818;45.534;5.292;2022-12-18T08:57:02;11.40;99.90
28632;DHT22;15818;45.534;5.292;2022-12-18T08:59:28;12.40;99.90
28632;DHT22;15818;45.534;5.292;2022-12-18T09:01:54;12.60;99.90
28632;DHT22;15818;45.534;5.292;2022-12-18T09:04:20;12.50;99.90
28632;DHT22;15818;45.534;5.292;2022-12-18T09:06:46;12.60;99.90
28632;DHT22;15818;45.534;5.292;2022-12-18T09:09:11;11.80;99.90
28632;DHT22;15818;45.534;5.292;2022-12-18T09:11:37;11.80;99.90
28632;DHT22;15818;45.534;5.292;2022-12-18T09:14:02;12.10;99.90
28632;DHT22;15818;45.534;5.292;2022-12-18T09:16:28;11.80;99.90
28632;DHT22;15818;45.534;5.292;2022-12-18T09:18:54;11.10;99.90
28632;DHT22;15818;45.534;5.292;2022-12-18T09:21:25;10.90;99.90
28632;DHT22;15818;45.534;5.292;2022-12-18T09:23:51;10.50;99.90
28632;DHT22;15818;45.534;5.292;2022-12-18T09:26:17;9.80;99.90
28632;DHT22;15818;45.534;5.292;2022-12-18T09:28:42;9.60;99.90
28632;DHT22;15818;45.534;5.292;2022-12-18T09:31:08;9.80;99.90
28632;DHT22;15818;45.534;5.292;2022-12-18T09:33:34;9.90;99.90
28632;DHT22;15818;45.534;5.292;2022-12-18T09:36:01;9.60;99.90
28632;DHT22;15818;45.534;5.292;2022-12-18T09:38:27;11.20;99.90
28632;DHT22;15818;45.534;5.292;2022-12-18T09:40:53;12.30;99.90
28632;DHT22;15818;45.534;5.292;2022-12-18T09:43:23;13.20;99.90
28632;DHT22;15818;45.534;5.292;2022-12-18T09:45:59;13.10;99.90
28632;DHT22;15818;45.534;5.292;2022-12-18T09:48:30;13.00;99.90
28632;DHT22;15818;45.534;5.292;2022-12-18T09:51:00;13.50;99.90
28632;DHT22;15818;45.534;5.292;2022-12-18T09:53:28;13.50;99.90
28632;DHT22;15818;45.534;5.292;2022-12-18T09:55:56;13.80;99.90
28632;DHT22;15818;45.534;5.292;2022-12-18T09:58:30;14.70;99.90
28632;DHT22;15818;45.534;5.292;2022-12-18T10:00:57;15.30;99.90
28632;DHT22;15818;45.534;5.292;2022-12-18T10:03:23;15.00;99.90
28632;DHT22;15818;45.534;5.292;2022-12-18T10:11:03;14.00;99.90
28632;DHT22;15818;45.534;5.292;2022-12-18T10:13:46;14.10;99.90
28632;DHT22;15818;45.534;5.292;2022-12-18T10:26:36;15.30;99.90
28632;DHT22;15818;45.534;5.292;2022-12-18T10:29:04;15.20;99.90
28632;DHT22;15818;45.534;5.292;2022-12-18T10:31:33;14.90;99.90
28632;DHT22;15818;45.534;5.292;2022-12-18T10:33:59;14.00;99.90
28632;DHT22;15818;45.534;5.292;2022-12-18T10:36:24;14.50;99.90
28632;DHT22;15818;45.534;5.292;2022-12-18T10:38:50;13.60;99.90
28632;DHT22;15818;45.534;5.292;2022-12-18T10:43:46;15.70;99.90
28632;DHT22;15818;45.534;5.292;2022-12-18T10:46:12;15.60;99.90
28632;DHT22;15818;45.534;5.292;2022-12-18T10:51:21;15.90;99.90
28632;DHT22;15818;45.534;5.292;2022-12-18T10:53:51;17.40;99.90
28632;DHT22;15818;45.534;5.292;2022-12-18T10:56:18;16.30;99.90
28632;DHT22;15818;45.534;5.292;2022-12-18T10:58:45;17.70;99.90
28632;DHT22;15818;45.534;5.292;2022-12-18T11:01:20;16.20;99.90
28632;DHT22;15818;45.534;5.292;2022-12-18T11:04:31;17.40;99.90
28632;DHT22;15818;45.534;5.292;2022-12-18T11:06:31;17.40;99.90
28632;DHT22;15818;45.534;5.292;2022-12-18T11:09:18;16.80;99.90
28632;DHT22;15818;45.534;5.292;2022-12-18T11:11:42;16.00;99.90
28632;DHT22;15818;45.534;5.292;2022-12-18T11:14:15;16.40;99.90
28632;DHT22;15818;45.534;5.292;2022-12-18T11:16:44;17.30;99.90
28632;DHT22;15818;45.534;5.292;2022-12-18T11:21:49;17.00;99.90
28632;DHT22;15818;45.534;5.292;2022-12-18T11:24:31;16.60;99.90
28632;DHT22;15818;45.534;5.292;2022-12-18T11:26:57;16.90;99.90
28632;DHT22;15818;45.534;5.292;2022-12-18T11:29:26;17.20;99.90
28632;DHT22;15818;45.534;5.292;2022-12-18T11:32:01;17.50;99.90
28632;DHT22;15818;45.534;5.292;2022-12-18T11:34:38;16.10;99.90
28632;DHT22;15818;45.534;5.292;2022-12-18T11:37:04;16.80;99.90
28632;DHT22;15818;45.534;5.292;2022-12-18T11:40:13;17.30;99.90
28632;DHT22;15818;45.534;5.292;2022-12-18T11:45:01;16.80;99.90
28632;DHT22;15818;45.534;5.292;2022-12-18T11:47:30;17.00;99.90
28632;DHT22;15818;45.534;5.292;2022-12-18T11:50:00;17.40;99.90
28632;DHT22;15818;45.534;5.292;2022-12-18T11:52:28;19.90;99.90
28632;DHT22;15818;45.534;5.292;2022-12-18T11:55:00;19.10;99.90
28632;DHT22;15818;45.534;5.292;2022-12-18T12:00:15;20.40;99.90
28632;DHT22;15818;45.534;5.292;2022-12-18T12:02:54;21.50;99.90
28632;DHT22;15818;45.534;5.292;2022-12-18T12:07:52;22.40;99.90
28632;DHT22;15818;45.534;5.292;2022-12-18T12:12:58;22.00;99.90
28632;DHT22;15818;45.534;5.292;2022-12-18T12:17:56;23.00;99.90
28632;DHT22;15818;45.534;5.292;2022-12-18T12:25:50;23.70;99.90
28632;DHT22;15818;45.534;5.292;2022-12-18T12:38:41;21.10;99.90
28632;DHT22;15818;45.534;5.292;2022-12-18T12:41:12;21.70;99.90
28632;DHT22;15818;45.534;5.292;2022-12-18T12:44:00;20.90;99.90
28632;DHT22;15818;45.534;5.292;2022-12-18T12:46:27;19.60;99.90
28632;DHT22;15818;45.534;5.292;2022-12-18T12:48:54;20.10;99.90
28632;DHT22;15818;45.534;5.292;2022-12-18T12:51:28;20.40;99.90
28632;DHT22;15818;45.534;5.292;2022-12-18T12:53:54;18.60;99.90
28632;DHT22;15818;45.534;5.292;2022-12-18T12:56:21;19.50;99.90
28632;DHT22;15818;45.534;5.292;2022-12-18T13:01:32;20.00;99.90
28632;DHT22;15818;45.534;5.292;2022-12-18T13:06:47;19.50;99.90
28632;DHT22;15818;45.534;5.292;2022-12-18T13:09:15;19.90;99.90
28632;DHT22;15818;45.534;5.292;2022-12-18T13:11:42;19.50;99.90
28632;DHT22;15818;45.534;5.292;2022-12-18T13:17:03;18.50;99.90
28632;DHT22;15818;45.534;5.292;2022-12-18T13:19:37;17.80;99.90
28632;DHT22;15818;45.534;5.292;2022-12-18T13:22:03;16.90;99.90
28632;DHT22;15818;45.534;5.292;2022-12-18T13:24:30;17.20;99.90
28632;DHT22;15818;45.534;5.292;2022-12-18T13:26:56;18.00;99.90
28632;DHT22;15818;45.534;5.292;2022-12-18T13:29:43;17.40;99.90
28632;DHT22;15818;45.534;5.292;2022-12-18T13:32:18;16.00;99.90
28632;DHT22;15818;45.534;5.292;2022-12-18T13:34:44;16.30;99.90
28632;DHT22;15818;45.534;5.292;2022-12-18T13:39:54;16.70;99.90
28632;DHT22;15818;45.534;5.292;2022-12-18T13:47:57;17.00;99.90
28632;DHT22;15818;45.534;5.292;2022-12-18T13:50:23;17.00;99.90
28632;DHT22;15818;45.534;5.292;2022-12-18T13:52:49;16.00;99.90
28632;DHT22;15818;45.534;5.292;2022-12-18T13:55:16;17.00;99.90
28632;DHT22;15818;45.534;5.292;2022-12-18T13:57:43;17.50;99.90
28632;DHT22;15818;45.534;5.292;2022-12-18T14:00:19;18.40;99.90
28632;DHT22;15818;45.534;5.292;2022-12-18T14:02:48;17.90;99.90
28632;DHT22;15818;45.534;5.292;2022-12-18T14:05:25;18.50;99.90
28632;DHT22;15818;45.534;5.292;2022-12-18T14:07:51;17.90;99.90
28632;DHT22;15818;45.534;5.292;2022-12-18T14:10:17;18.50;99.90
28632;DHT22;15818;45.534;5.292;2022-12-18T14:12:49;18.40;99.90
28632;DHT22;15818;45.534;5.292;2022-12-18T14:18:00;19.20;99.90
28632;DHT22;15818;45.534;5.292;2022-12-18T14:20:27;17.30;99.90
28632;DHT22;15818;45.534;5.292;2022-12-18T14:22:53;16.80;99.90
28632;DHT22;15818;45.534;5.292;2022-12-18T14:25:29;16.50;99.90
28632;DHT22;15818;45.534;5.292;2022-12-18T14:30:37;17.00;99.90
28632;DHT22;15818;45.534;5.292;2022-12-18T14:33:10;17.80;99.90
28632;DHT22;15818;45.534;5.292;2022-12-18T14:35:37;16.60;99.90
28632;DHT22;15818;45.534;5.292;2022-12-18T14:40:41;17.50;99.90
28632;DHT22;15818;45.534;5.292;2022-12-18T14:43:08;18.20;99.90
28632;DHT22;15818;45.534;5.292;2022-12-18T14:45:42;17.30;99.90
28632;DHT22;15818;45.534;5.292;2022-12-18T14:48:33;17.80;99.90
28632;DHT22;15818;45.534;5.292;2022-12-18T14:50:58;17.90;99.90
28632;DHT22;15818;45.534;5.292;2022-12-18T14:53:35;16.60;99.90
28632;DHT22;15818;45.534;5.292;2022-12-18T14:56:02;16.40;99.90
28632;DHT22;15818;45.534;5.292;2022-12-18T14:58:28;16.10;99.90
28632;DHT22;15818;45.534;5.292;2022-12-18T15:00:53;16.10;99.90
28632;DHT22;15818;45.534;5.292;2022-12-18T15:03:20;15.20;99.90
28632;DHT22;15818;45.534;5.292;2022-12-18T15:05:45;15.70;99.90
28632;DHT22;15818;45.534;5.292;2022-12-18T15:08:31;14.10;99.90
28632;DHT22;15818;45.534;5.292;2022-12-18T15:10:59;12.50;99.90
28632;DHT22;15818;45.534;5.292;2022-12-18T15:13:25;12.10;99.90
28632;DHT22;15818;45.534;5.292;2022-12-18T15:15:51;11.60;99.90
28632;DHT22;15818;45.534;5.292;2022-12-18T15:18:18;11.40;99.90
28632;DHT22;15818;45.534;5.292;2022-12-18T15:20:47;11.00;99.90
28632;DHT22;15818;45.534;5.292;2022-12-18T15:26:02;10.90;99.90
28632;DHT22;15818;45.534;5.292;2022-12-18T15:31:00;10.50;99.90
28632;DHT22;15818;45.534;5.292;2022-12-18T15:33:29;10.40;99.90
28632;DHT22;15818;45.534;5.292;2022-12-18T15:35:59;10.30;99.90
28632;DHT22;15818;45.534;5.292;2022-12-18T15:38:26;10.20;99.90
28632;DHT22;15818;45.534;5.292;2022-12-18T15:40:52;10.20;99.90
28632;DHT22;15818;45.534;5.292;2022-12-18T15:43:17;10.10;99.90
28632;DHT22;15818;45.534;5.292;2022-12-18T15:46:00;9.90;99.90
28632;DHT22;15818;45.534;5.292;2022-12-18T15:48:26;10.00;99.90
28632;DHT22;15818;45.534;5.292;2022-12-18T15:50:52;9.90;99.90
28632;DHT22;15818;45.534;5.292;2022-12-18T15:53:18;9.80;99.90
28632;DHT22;15818;45.534;5.292;2022-12-18T15:55:44;9.70;99.90
28632;DHT22;15818;45.534;5.292;2022-12-18T15:58:28;9.80;99.90
28632;DHT22;15818;45.534;5.292;2022-12-18T16:00:53;9.60;99.90
28632;DHT22;15818;45.534;5.292;2022-12-18T16:03:19;9.70;99.90
28632;DHT22;15818;45.534;5.292;2022-12-18T16:05:45;9.60;99.90
28632;DHT22;15818;45.534;5.292;2022-12-18T16:08:11;9.70;99.90
28632;DHT22;15818;45.534;5.292;2022-12-18T16:10:36;9.70;99.90
28632;DHT22;15818;45.534;5.292;2022-12-18T16:13:02;9.60;99.90
28632;DHT22;15818;45.534;5.292;2022-12-18T16:15:27;9.60;99.90
28632;DHT22;15818;45.534;5.292;2022-12-18T16:17:53;9.50;99.90
28632;DHT22;15818;45.534;5.292;2022-12-18T16:20:20;9.60;99.90
28632;DHT22;15818;45.534;5.292;2022-12-18T16:22:46;9.60;99.90
28632;DHT22;15818;45.534;5.292;2022-12-18T16:25:25;9.70;99.90
28632;DHT22;15818;45.534;5.292;2022-12-18T16:27:52;9.70;99.90
28632;DHT22;15818;45.534;5.292;2022-12-18T16:30:28;9.70;99.90
28632;DHT22;15818;45.534;5.292;2022-12-18T16:32:54;9.70;99.90
28632;DHT22;15818;45.534;5.292;2022-12-18T16:35:20;9.80;99.90
28632;DHT22;15818;45.534;5.292;2022-12-18T16:37:46;9.80;99.90
28632;DHT22;15818;45.534;5.292;2022-12-18T16:40:12;9.60;99.90
28632;DHT22;15818;45.534;5.292;2022-12-18T16:42:39;9.50;99.90
28632;DHT22;15818;45.534;5.292;2022-12-18T16:45:06;9.60;99.90
28632;DHT22;15818;45.534;5.292;2022-12-18T16:47:32;9.60;99.90
28632;DHT22;15818;45.534;5.292;2022-12-18T16:49:57;9.60;99.90
28632;DHT22;15818;45.534;5.292;2022-12-18T16:52:23;9.50;99.90
28632;DHT22;15818;45.534;5.292;2022-12-18T16:54:49;9.50;99.90
28632;DHT22;15818;45.534;5.292;2022-12-18T16:57:15;9.60;99.90
28632;DHT22;15818;45.534;5.292;2022-12-18T16:59:41;9.70;99.90
28632;DHT22;15818;45.534;5.292;2022-12-18T17:02:14;9.70;99.90
28632;DHT22;15818;45.534;5.292;2022-12-18T17:04:40;9.70;99.90
28632;DHT22;15818;45.534;5.292;2022-12-18T17:07:07;9.80;99.90
28632;DHT22;15818;45.534;5.292;2022-12-18T17:09:32;9.80;99.90
28632;DHT22;15818;45.534;5.292;2022-12-18T17:11:58;9.80;99.90
28632;DHT22;15818;45.534;5.292;2022-12-18T17:14:25;9.80;99.90
28632;DHT22;15818;45.534;5.292;2022-12-18T17:16:52;9.90;99.90
28632;DHT22;15818;45.534;5.292;2022-12-18T17:19:17;9.80;99.90
28632;DHT22;15818;45.534;5.292;2022-12-18T17:21:44;9.80;99.90
28632;DHT22;15818;45.534;5.292;2022-12-18T17:24:10;9.80;99.90
28632;DHT22;15818;45.534;5.292;2022-12-18T17:26:36;9.60;99.90
28632;DHT22;15818;45.534;5.292;2022-12-18T17:29:02;9.40;99.90
28632;DHT22;15818;45.534;5.292;2022-12-18T17:31:28;9.30;99.90
28632;DHT22;15818;45.534;5.292;2022-12-18T17:33:54;9.40;99.90